Time;durP1;ratioP1;P1;durP2;ratioP2;P2;SDS_P1;SDS_P2;PMS_P1;PMS_P2;Temp;Humidity;BMP_temperature;BMP_pressure;BME280_temperature;BME280_humidity;BME280_pressure;Samples;Min_cycle;Max_cycle;Signal;HPM_P1;HPM_P2
2024/01/16 00:00:52;;;;;;;7.80;1.55;;;;;;;;;;5024008;28;20045;-77
2024/01/16 00:03:18;;;;;;;5.53;1.17;;;;;;;;;;5009589;28;20061;-78
2024/01/16 00:05:44;;;;;;;9.05;1.70;;;;;;;;;;5027254;28;20045;-77
2024/01/16 00:08:10;;;;;;;4.80;1.15;;;;;;;;;;5027295;28;20782;-78
2024/01/16 00:10:36;;;;;;;7.03;1.48;;;;;;;;;;5026427;28;20034;-78
2024/01/16 00:13:02;;;;;;;8.52;1.83;;;;;;;;;;5027735;28;20200;-78
2024/01/16 00:15:29;;;;;;;8.57;1.88;;;;;;;;;;5027787;28;20037;-78
2024/01/16 00:17:55;;;;;;;2.60;1.08;;;;;;;;;;4996407;28;20056;-78
2024/01/16 00:20:23;;;;;;;6.88;1.40;;;;;;;;;;5031518;28;20491;-78
2024/01/16 00:22:49;;;;;;;10.10;2.10;;;;;;;;;;5032008;28;20046;-77
2024/01/16 00:25:15;;;;;;;7.25;1.30;;;;;;;;;;5031962;28;20051;-78
2024/01/16 00:27:42;;;;;;;8.02;1.10;;;;;;;;;;5030580;28;20101;-78
2024/01/16 00:30:08;;;;;;;8.88;1.55;;;;;;;;;;5028854;28;20123;-78
2024/01/16 00:32:34;;;;;;;6.63;1.20;;;;;;;;;;5029274;28;20568;-77
2024/01/16 00:35:00;;;;;;;4.18;1.15;;;;;;;;;;5029413;28;20085;-78
2024/01/16 00:37:26;;;;;;;7.45;1.45;;;;;;;;;;5030478;28;20041;-78
2024/01/16 00:39:52;;;;;;;8.00;1.20;;;;;;;;;;5029904;28;20049;-78
2024/01/16 00:42:18;;;;;;;7.38;1.13;;;;;;;;;;5026631;28;20041;-78
2024/01/16 00:44:45;;;;;;;7.07;1.20;;;;;;;;;;5025146;28;20460;-77
2024/01/16 00:47:11;;;;;;;9.05;1.30;;;;;;;;;;5012913;28;20503;-77
2024/01/16 00:49:37;;;;;;;3.63;1.17;;;;;;;;;;5030302;28;20046;-78
2024/01/16 00:52:04;;;;;;;4.20;1.02;;;;;;;;;;5027902;28;20049;-77
2024/01/16 00:54:30;;;;;;;7.05;1.63;;;;;;;;;;5028746;28;20048;-77
2024/01/16 00:56:59;;;;;;;4.45;1.02;;;;;;;;;;5030103;28;20053;-78
2024/01/16 00:59:25;;;;;;;2.88;0.93;;;;;;;;;;5029279;28;20080;-77
2024/01/16 01:01:51;;;;;;;6.22;1.40;;;;;;;;;;5029560;28;20056;-78
2024/01/16 01:04:17;;;;;;;2.15;0.90;;;;;;;;;;5027668;28;20045;-78
2024/01/16 01:06:43;;;;;;;6.85;1.00;;;;;;;;;;5011939;28;20834;-77
2024/01/16 01:09:11;;;;;;;6.78;1.13;;;;;;;;;;5029180;28;20140;-77
2024/01/16 01:11:38;;;;;;;4.35;1.05;;;;;;;;;;5029310;28;20052;-77
2024/01/16 01:14:04;;;;;;;4.60;0.70;;;;;;;;;;5012864;28;20053;-78
2024/01/16 01:16:30;;;;;;;3.00;0.60;;;;;;;;;;5028805;28;20055;-77
2024/01/16 01:18:57;;;;;;;5.13;0.98;;;;;;;;;;5030628;28;20053;-77
2024/01/16 01:21:23;;;;;;;6.25;0.90;;;;;;;;;;5029072;28;20446;-78
2024/01/16 01:23:49;;;;;;;4.55;0.60;;;;;;;;;;5029074;28;20096;-78
2024/01/16 01:26:17;;;;;;;2.30;0.80;;;;;;;;;;5028421;28;20045;-78
2024/01/16 01:28:43;;;;;;;5.75;1.02;;;;;;;;;;5028914;28;20045;-78
2024/01/16 01:31:10;;;;;;;2.80;0.75;;;;;;;;;;5026597;28;20095;-78
2024/01/16 01:33:36;;;;;;;2.80;0.75;;;;;;;;;;5028757;28;20047;-78
2024/01/16 01:36:02;;;;;;;8.38;1.45;;;;;;;;;;5029351;28;20395;-78
2024/01/16 01:38:28;;;;;;;2.78;0.60;;;;;;;;;;5010559;28;20427;-78
2024/01/16 01:40:54;;;;;;;3.40;0.88;;;;;;;;;;5028246;28;20046;-78
2024/01/16 01:43:21;;;;;;;3.25;0.68;;;;;;;;;;4995501;28;20116;-78
2024/01/16 01:46:14;;;;;;;2.83;1.00;;;;;;;;;;5029949;28;20120;-77
2024/01/16 01:48:43;;;;;;;2.63;0.70;;;;;;;;;;5028837;28;20061;-78
2024/01/16 01:51:09;;;;;;;4.72;0.90;;;;;;;;;;5028361;28;20048;-77
2024/01/16 01:53:37;;;;;;;5.43;1.38;;;;;;;;;;5027791;28;20526;-78
2024/01/16 01:56:05;;;;;;;2.58;0.68;;;;;;;;;;5029643;28;20487;-78
2024/01/16 01:58:32;;;;;;;5.50;0.85;;;;;;;;;;5029569;28;20049;-78
2024/01/16 02:00:58;;;;;;;2.45;0.60;;;;;;;;;;5028496;28;20046;-78
2024/01/16 02:03:25;;;;;;;7.85;1.00;;;;;;;;;;5027528;28;20058;-77
2024/01/16 02:05:51;;;;;;;6.43;1.15;;;;;;;;;;5028832;28;20045;-77
2024/01/16 02:08:18;;;;;;;5.10;0.95;;;;;;;;;;5028117;28;20499;-78
2024/01/16 02:10:45;;;;;;;3.83;0.85;;;;;;;;;;5028381;28;20525;-77
2024/01/16 02:13:11;;;;;;;6.10;1.20;;;;;;;;;;5027653;28;20129;-77
2024/01/16 02:15:41;;;;;;;5.80;0.93;;;;;;;;;;5019999;28;20061;-78
2024/01/16 02:18:07;;;;;;;4.95;1.08;;;;;;;;;;5028565;28;20049;-77
2024/01/16 02:20:33;;;;;;;3.45;1.30;;;;;;;;;;5029178;28;20434;-78
2024/01/16 02:23:00;;;;;;;3.38;0.70;;;;;;;;;;5027440;28;20037;-77
2024/01/16 02:25:27;;;;;;;4.53;1.00;;;;;;;;;;5014284;28;20129;-78
2024/01/16 02:27:53;;;;;;;7.57;0.90;;;;;;;;;;5025196;28;20487;-78
2024/01/16 02:30:19;;;;;;;4.35;1.10;;;;;;;;;;5029002;28;20052;-78
2024/01/16 02:32:45;;;;;;;5.95;0.85;;;;;;;;;;5024365;28;20386;-77
2024/01/16 02:35:11;;;;;;;2.22;1.00;;;;;;;;;;5028464;28;20115;-78
2024/01/16 02:37:37;;;;;;;3.03;0.75;;;;;;;;;;5027511;28;20049;-77
2024/01/16 02:40:06;;;;;;;3.15;0.70;;;;;;;;;;5027496;28;20092;-78
2024/01/16 02:42:34;;;;;;;4.88;0.90;;;;;;;;;;5027419;28;20053;-78
2024/01/16 02:45:01;;;;;;;6.30;1.13;;;;;;;;;;5028547;28;20124;-78
2024/01/16 02:47:27;;;;;;;5.63;1.13;;;;;;;;;;5027235;28;20458;-78
2024/01/16 02:49:53;;;;;;;5.80;0.80;;;;;;;;;;5028546;28;20045;-78
2024/01/16 02:52:19;;;;;;;3.35;0.90;;;;;;;;;;5026269;28;20540;-77
2024/01/16 02:54:46;;;;;;;7.72;0.80;;;;;;;;;;5028351;28;20511;-78
2024/01/16 02:57:11;;;;;;;5.28;1.40;;;;;;;;;;5010305;28;20352;-78
2024/01/16 02:59:38;;;;;;;3.95;1.20;;;;;;;;;;4994277;28;20075;-78
2024/01/16 03:02:04;;;;;;;3.72;0.93;;;;;;;;;;5024907;28;20137;-77
2024/01/16 03:04:30;;;;;;;3.80;1.00;;;;;;;;;;5008315;28;20095;-78
2024/01/16 03:06:56;;;;;;;6.43;1.02;;;;;;;;;;5027737;28;20568;-78
2024/01/16 03:09:22;;;;;;;3.05;0.73;;;;;;;;;;5026156;28;20037;-78
2024/01/16 03:11:48;;;;;;;8.55;1.67;;;;;;;;;;5025532;28;20050;-78
2024/01/16 03:14:14;;;;;;;2.08;0.68;;;;;;;;;;5028561;28;20081;-78
2024/01/16 03:16:40;;;;;;;2.90;0.65;;;;;;;;;;5027696;28;20057;-78
2024/01/16 03:19:06;;;;;;;4.80;0.68;;;;;;;;;;5026977;28;20548;-77
2024/01/16 03:21:33;;;;;;;4.28;0.90;;;;;;;;;;5026286;28;20519;-77
2024/01/16 03:23:59;;;;;;;3.60;0.73;;;;;;;;;;5027440;28;20737;-78
2024/01/16 03:26:25;;;;;;;3.38;0.57;;;;;;;;;;5027721;28;20041;-78
2024/01/16 03:28:51;;;;;;;4.82;1.02;;;;;;;;;;5028147;28;20047;-78
2024/01/16 03:31:19;;;;;;;3.85;0.85;;;;;;;;;;5027463;28;20091;-78
2024/01/16 03:33:45;;;;;;;7.60;0.77;;;;;;;;;;5026934;28;20061;-78
2024/01/16 03:36:12;;;;;;;6.28;0.65;;;;;;;;;;5026377;28;20049;-78
2024/01/16 03:38:38;;;;;;;8.38;1.35;;;;;;;;;;5027944;28;20049;-78
2024/01/16 03:41:06;;;;;;;4.65;0.77;;;;;;;;;;5026555;28;20049;-77
2024/01/16 03:43:33;;;;;;;6.22;0.90;;;;;;;;;;5026030;28;20076;-78
2024/01/16 03:45:59;;;;;;;6.10;0.73;;;;;;;;;;5027036;28;20165;-78
2024/01/16 03:48:25;;;;;;;4.80;0.85;;;;;;;;;;5025589;28;20506;-78
2024/01/16 03:50:53;;;;;;;2.78;0.70;;;;;;;;;;5027742;28;20721;-77
2024/01/16 03:53:19;;;;;;;3.47;0.90;;;;;;;;;;5025287;28;20046;-78
2024/01/16 03:55:46;;;;;;;5.40;1.10;;;;;;;;;;5028387;28;20111;-78
2024/01/16 03:58:11;;;;;;;2.95;0.70;;;;;;;;;;5026937;28;20470;-78
2024/01/16 04:00:38;;;;;;;3.40;0.70;;;;;;;;;;5009307;28;20042;-78
2024/01/16 04:03:04;;;;;;;2.97;0.68;;;;;;;;;;5026838;28;20056;-78
2024/01/16 04:05:30;;;;;;;6.00;1.27;;;;;;;;;;5026422;28;20110;-78
2024/01/16 04:07:57;;;;;;;5.38;1.02;;;;;;;;;;5026780;28;20450;-78
2024/01/16 04:10:23;;;;;;;3.85;0.70;;;;;;;;;;5027994;28;20041;-79
2024/01/16 04:12:49;;;;;;;5.28;0.65;;;;;;;;;;5026970;28;20058;-78
2024/01/16 04:15:15;;;;;;;4.50;1.20;;;;;;;;;;5009825;28;20505;-78
2024/01/16 04:17:41;;;;;;;3.75;1.10;;;;;;;;;;5018572;28;20098;-78
2024/01/16 04:20:07;;;;;;;6.68;0.98;;;;;;;;;;5027024;28;20073;-78
2024/01/16 04:22:33;;;;;;;3.72;0.80;;;;;;;;;;5026440;28;20041;-78
2024/01/16 04:25:00;;;;;;;6.57;0.90;;;;;;;;;;5026674;28;20041;-78
2024/01/16 04:27:25;;;;;;;8.02;1.00;;;;;;;;;;5026675;28;20604;-78
2024/01/16 04:29:53;;;;;;;7.18;1.08;;;;;;;;;;5026705;28;20055;-78
2024/01/16 04:32:19;;;;;;;6.90;1.05;;;;;;;;;;5025938;28;20041;-78
2024/01/16 04:34:45;;;;;;;6.55;1.08;;;;;;;;;;5026461;28;20431;-78
2024/01/16 04:37:11;;;;;;;6.20;1.05;;;;;;;;;;5026037;28;20051;-78
2024/01/16 04:39:37;;;;;;;2.08;0.68;;;;;;;;;;5026870;28;20042;-78
2024/01/16 04:42:03;;;;;;;3.05;1.00;;;;;;;;;;5026069;28;20499;-78
2024/01/16 04:44:29;;;;;;;4.30;0.90;;;;;;;;;;5026642;28;20050;-78
2024/01/16 04:46:55;;;;;;;4.85;0.73;;;;;;;;;;5026938;28;20072;-78
2024/01/16 04:49:21;;;;;;;6.70;0.90;;;;;;;;;;5024693;28;20041;-78
2024/01/16 04:51:47;;;;;;;5.80;1.10;;;;;;;;;;5026789;28;20034;-78
2024/01/16 04:54:13;;;;;;;5.35;1.20;;;;;;;;;;5026539;28;20152;-78
2024/01/16 04:56:39;;;;;;;7.93;1.92;;;;;;;;;;4992529;28;20558;-78
2024/01/16 04:59:05;;;;;;;5.10;1.35;;;;;;;;;;5025777;28;20042;-78
2024/01/16 05:01:31;;;;;;;5.57;1.15;;;;;;;;;;5008785;28;20064;-78
2024/01/16 05:03:57;;;;;;;7.03;1.05;;;;;;;;;;5027279;28;20167;-78
2024/01/16 05:06:24;;;;;;;3.75;0.85;;;;;;;;;;5030837;28;20045;-77
2024/01/16 05:08:50;;;;;;;3.70;1.13;;;;;;;;;;4994371;28;20514;-77
2024/01/16 05:11:16;;;;;;;5.20;0.75;;;;;;;;;;5030595;28;20155;-78
2024/01/16 05:13:42;;;;;;;4.93;1.00;;;;;;;;;;5015020;28;20149;-78
2024/01/16 05:16:08;;;;;;;3.72;0.98;;;;;;;;;;5029030;28;20041;-78
2024/01/16 05:18:34;;;;;;;7.22;1.38;;;;;;;;;;5029566;28;20052;-78
2024/01/16 05:21:02;;;;;;;2.33;0.65;;;;;;;;;;5027122;28;20057;-78
2024/01/16 05:23:28;;;;;;;7.18;1.08;;;;;;;;;;5029531;28;20049;-78
2024/01/16 05:25:54;;;;;;;7.40;1.02;;;;;;;;;;5011593;28;20411;-78
2024/01/16 05:28:20;;;;;;;7.20;0.95;;;;;;;;;;5029620;28;20060;-78
2024/01/16 05:30:46;;;;;;;4.90;0.93;;;;;;;;;;5027050;28;20052;-78
2024/01/16 05:33:12;;;;;;;5.82;1.13;;;;;;;;;;5029572;28;20107;-78
2024/01/16 05:35:38;;;;;;;6.00;0.82;;;;;;;;;;5028442;28;20499;-78
2024/01/16 05:38:04;;;;;;;4.13;0.80;;;;;;;;;;5029232;28;20045;-78
2024/01/16 05:40:31;;;;;;;5.63;0.90;;;;;;;;;;5029627;28;20475;-78
2024/01/16 05:42:57;;;;;;;3.35;1.27;;;;;;;;;;5027152;28;20103;-78
2024/01/16 05:45:23;;;;;;;7.40;1.00;;;;;;;;;;5029133;28;20053;-78
2024/01/16 05:47:49;;;;;;;7.47;1.00;;;;;;;;;;5029314;28;20112;-79
2024/01/16 05:50:18;;;;;;;7.90;1.52;;;;;;;;;;5028204;28;20120;-77
2024/01/16 05:52:44;;;;;;;4.72;1.30;;;;;;;;;;5027165;28;20583;-78
2024/01/16 05:55:10;;;;;;;5.03;1.00;;;;;;;;;;5029990;28;20099;-78
2024/01/16 05:57:37;;;;;;;2.80;0.95;;;;;;;;;;5028250;28;20049;-78
2024/01/16 06:00:03;;;;;;;5.18;0.93;;;;;;;;;;5028672;28;20068;-78
2024/01/16 06:02:30;;;;;;;4.78;1.00;;;;;;;;;;5028792;28;20096;-78
2024/01/16 06:04:56;;;;;;;6.03;0.93;;;;;;;;;;5029667;28;20088;-78
2024/01/16 06:07:22;;;;;;;4.28;1.27;;;;;;;;;;5028083;28;20069;-78
2024/01/16 06:09:48;;;;;;;4.93;1.13;;;;;;;;;;5029610;28;20042;-78
2024/01/16 06:12:14;;;;;;;5.55;1.08;;;;;;;;;;5029221;28;20084;-78
2024/01/16 06:14:40;;;;;;;4.25;1.27;;;;;;;;;;5028578;28;20321;-78
2024/01/16 06:17:06;;;;;;;6.82;1.42;;;;;;;;;;5027193;28;20107;-78
2024/01/16 06:19:35;;;;;;;9.50;1.63;;;;;;;;;;5027121;28;20041;-78
2024/01/16 06:22:01;;;;;;;5.68;1.27;;;;;;;;;;5025487;28;20045;-78
2024/01/16 06:24:27;;;;;;;10.43;1.48;;;;;;;;;;5027689;28;20510;-78
2024/01/16 06:26:53;;;;;;;7.93;2.03;;;;;;;;;;5015283;28;20054;-78
2024/01/16 06:29:19;;;;;;;4.15;1.08;;;;;;;;;;5029093;28;20606;-79
2024/01/16 06:31:45;;;;;;;6.18;2.00;;;;;;;;;;5027284;28;20049;-78
2024/01/16 06:34:11;;;;;;;3.72;1.52;;;;;;;;;;5027299;28;20046;-78
2024/01/16 06:36:37;;;;;;;3.00;1.73;;;;;;;;;;5028429;28;20045;-78
2024/01/16 06:39:03;;;;;;;8.55;1.80;;;;;;;;;;5027717;28;20624;-78
2024/01/16 06:41:29;;;;;;;5.22;2.08;;;;;;;;;;5027093;28;20475;-78
2024/01/16 06:43:55;;;;;;;5.05;1.80;;;;;;;;;;5028081;28;20041;-78
2024/01/16 06:46:21;;;;;;;4.20;1.80;;;;;;;;;;5011059;28;20895;-78
2024/01/16 06:48:48;;;;;;;5.55;2.30;;;;;;;;;;5027848;28;20041;-78
2024/01/16 06:51:15;;;;;;;5.40;2.28;;;;;;;;;;5027592;28;20924;-79
2024/01/16 06:53:41;;;;;;;5.72;1.70;;;;;;;;;;5025808;28;20049;-79
2024/01/16 06:56:08;;;;;;;5.28;2.17;;;;;;;;;;5025912;28;20828;-78
2024/01/16 06:58:35;;;;;;;7.57;2.30;;;;;;;;;;5025351;28;20045;-78
2024/01/16 07:01:01;;;;;;;8.18;2.50;;;;;;;;;;5025782;28;20404;-78
2024/01/16 07:03:27;;;;;;;4.55;2.05;;;;;;;;;;5013369;28;20049;-78
2024/01/16 07:05:53;;;;;;;8.55;2.17;;;;;;;;;;5027181;28;20096;-79
2024/01/16 07:08:19;;;;;;;4.90;1.95;;;;;;;;;;5026377;28;20041;-79
2024/01/16 07:10:46;;;;;;;6.07;2.67;;;;;;;;;;5028373;28;20495;-79
2024/01/16 07:13:12;;;;;;;7.30;2.42;;;;;;;;;;5028138;28;20045;-79
2024/01/16 07:15:38;;;;;;;7.53;2.55;;;;;;;;;;5028765;28;20155;-79
2024/01/16 07:18:04;;;;;;;6.18;2.83;;;;;;;;;;5027151;28;20045;-79
2024/01/16 07:20:30;;;;;;;11.88;2.85;;;;;;;;;;5027544;28;20732;-79
2024/01/16 07:22:56;;;;;;;3.67;2.15;;;;;;;;;;5026383;28;20041;-78
2024/01/16 07:25:23;;;;;;;8.52;4.15;;;;;;;;;;5028058;28;20375;-78
2024/01/16 07:27:49;;;;;;;9.40;3.55;;;;;;;;;;5027388;28;20038;-79
2024/01/16 07:30:16;;;;;;;9.15;2.67;;;;;;;;;;5028112;28;20049;-78
2024/01/16 07:32:42;;;;;;;7.28;3.28;;;;;;;;;;5027183;28;20038;-79
2024/01/16 07:35:09;;;;;;;6.60;3.55;;;;;;;;;;5027104;28;20337;-79
2024/01/16 07:37:35;;;;;;;8.38;3.03;;;;;;;;;;5027581;28;20460;-79
2024/01/16 07:40:01;;;;;;;7.05;2.60;;;;;;;;;;5026682;28;20056;-80
2024/01/16 07:42:33;;;;;;;8.45;3.90;;;;;;;;;;5027653;28;20414;-79
2024/01/16 07:44:59;;;;;;;6.80;3.20;;;;;;;;;;5027221;28;20049;-79
2024/01/16 07:47:25;;;;;;;8.20;2.75;;;;;;;;;;5026728;28;20534;-79
2024/01/16 07:49:51;;;;;;;7.13;3.10;;;;;;;;;;5026580;28;20049;-79
2024/01/16 07:52:17;;;;;;;8.93;2.88;;;;;;;;;;5026084;28;20057;-78
2024/01/16 07:54:43;;;;;;;6.45;2.95;;;;;;;;;;5027698;28;20055;-79
2024/01/16 07:57:10;;;;;;;4.68;2.90;;;;;;;;;;5027811;28;20044;-79
2024/01/16 07:59:36;;;;;;;5.25;3.00;;;;;;;;;;5028428;28;20053;-79
2024/01/16 08:02:02;;;;;;;7.75;3.60;;;;;;;;;;5025983;28;20063;-79
2024/01/16 08:04:32;;;;;;;7.15;3.40;;;;;;;;;;5027976;28;20123;-80
2024/01/16 08:06:58;;;;;;;7.97;3.33;;;;;;;;;;5027899;28;20117;-79
2024/01/16 08:09:24;;;;;;;7.93;4.22;;;;;;;;;;5027837;28;20053;-79
2024/01/16 08:11:50;;;;;;;16.85;9.13;;;;;;;;;;5027995;28;20050;-79
2024/01/16 08:14:16;;;;;;;17.55;8.60;;;;;;;;;;5028098;28;20067;-79
2024/01/16 08:16:42;;;;;;;7.72;4.35;;;;;;;;;;5027598;28;20499;-78
2024/01/16 08:19:08;;;;;;;6.85;3.85;;;;;;;;;;5025440;28;20140;-79
2024/01/16 08:21:34;;;;;;;8.30;3.40;;;;;;;;;;5027663;28;20042;-78
2024/01/16 08:24:00;;;;;;;7.57;3.35;;;;;;;;;;5034630;28;20041;-78
2024/01/16 08:26:26;;;;;;;8.70;5.03;;;;;;;;;;5046585;28;20414;-78
2024/01/16 08:28:52;;;;;;;9.27;3.47;;;;;;;;;;5046331;28;20136;-78
2024/01/16 08:31:18;;;;;;;7.25;3.75;;;;;;;;;;5046467;28;20041;-79
2024/01/16 08:33:45;;;;;;;7.93;3.95;;;;;;;;;;5023874;28;20045;-79
2024/01/16 08:36:11;;;;;;;10.88;3.67;;;;;;;;;;5026688;28;20057;-78
2024/01/16 08:38:37;;;;;;;9.55;4.07;;;;;;;;;;5027912;28;20056;-79
2024/01/16 08:41:06;;;;;;;7.20;3.95;;;;;;;;;;5046736;28;21342;-79
2024/01/16 08:43:32;;;;;;;7.38;4.43;;;;;;;;;;5050522;28;20908;-79
2024/01/16 08:45:58;;;;;;;8.77;4.53;;;;;;;;;;5051095;28;20053;-79
2024/01/16 08:48:24;;;;;;;9.00;4.60;;;;;;;;;;5046816;28;20472;-79
2024/01/16 08:50:50;;;;;;;7.85;4.32;;;;;;;;;;5030826;28;20099;-79
2024/01/16 08:53:16;;;;;;;10.65;4.00;;;;;;;;;;5030414;28;20129;-79
2024/01/16 08:55:42;;;;;;;12.68;3.97;;;;;;;;;;5031239;28;20381;-79
2024/01/16 08:58:08;;;;;;;8.77;4.40;;;;;;;;;;5031204;28;20046;-79
2024/01/16 09:00:34;;;;;;;9.60;4.45;;;;;;;;;;5030191;28;20801;-79
2024/01/16 09:03:00;;;;;;;10.40;4.53;;;;;;;;;;5029632;28;20060;-79
2024/01/16 09:05:26;;;;;;;10.23;4.53;;;;;;;;;;5030716;28;20087;-80
2024/01/16 09:07:52;;;;;;;6.97;3.63;;;;;;;;;;5030571;28;20122;-79
2024/01/16 09:10:18;;;;;;;8.50;3.95;;;;;;;;;;5030607;28;20045;-79
2024/01/16 09:12:44;;;;;;;6.22;3.80;;;;;;;;;;5030950;28;20094;-79
2024/01/16 09:15:11;;;;;;;8.15;4.53;;;;;;;;;;5012915;28;20088;-79
2024/01/16 09:17:37;;;;;;;9.23;3.95;;;;;;;;;;4996928;28;20525;-79
2024/01/16 09:20:03;;;;;;;7.72;3.92;;;;;;;;;;5028982;28;20057;-80
2024/01/16 09:22:29;;;;;;;8.00;4.30;;;;;;;;;;5027641;28;20128;-80
2024/01/16 09:24:55;;;;;;;9.85;4.18;;;;;;;;;;4995701;28;20491;-80
2024/01/16 09:27:21;;;;;;;7.72;5.05;;;;;;;;;;5029679;28;20107;-79
2024/01/16 09:29:47;;;;;;;6.40;4.07;;;;;;;;;;5026429;28;20436;-80
2024/01/16 09:32:13;;;;;;;9.23;5.25;;;;;;;;;;5023013;28;20149;-79
2024/01/16 09:34:39;;;;;;;13.52;6.32;;;;;;;;;;5021342;28;20457;-79
2024/01/16 09:37:05;;;;;;;10.45;6.45;;;;;;;;;;5034584;28;20153;-79
2024/01/16 09:39:34;;;;;;;14.50;6.82;;;;;;;;;;5029894;28;20088;-79
2024/01/16 09:42:04;;;;;;;14.20;7.25;;;;;;;;;;5030145;28;20081;-80
2024/01/16 09:44:30;;;;;;;14.25;8.32;;;;;;;;;;5049224;28;20059;-80
2024/01/16 09:46:56;;;;;;;13.98;7.20;;;;;;;;;;4998960;28;20052;-81
2024/01/16 09:49:23;;;;;;;13.05;7.80;;;;;;;;;;5029659;28;20052;-80
2024/01/16 09:51:49;;;;;;;13.25;6.72;;;;;;;;;;5029375;28;20056;-79
2024/01/16 09:54:15;;;;;;;9.75;6.20;;;;;;;;;;5029301;28;20658;-80
2024/01/16 09:56:45;;;;;;;15.32;6.28;;;;;;;;;;5012131;28;20089;-81
2024/01/16 09:59:13;;;;;;;8.50;5.30;;;;;;;;;;5028266;28;20045;-81
2024/01/16 10:01:39;;;;;;;14.88;6.50;;;;;;;;;;5028454;28;20845;-81
2024/01/16 10:04:05;;;;;;;12.50;5.88;;;;;;;;;;5029273;28;20059;-81
2024/01/16 10:06:32;;;;;;;9.57;5.88;;;;;;;;;;5029608;28;20067;-80
2024/01/16 10:08:58;;;;;;;14.77;7.15;;;;;;;;;;5010565;28;20045;-81
2024/01/16 10:11:24;;;;;;;8.07;5.63;;;;;;;;;;5029253;28;20045;-81
2024/01/16 10:13:50;;;;;;;12.15;5.50;;;;;;;;;;5028673;28;20080;-81
2024/01/16 10:16:16;;;;;;;11.30;6.03;;;;;;;;;;5007339;28;20143;-80
2024/01/16 10:18:43;;;;;;;9.65;5.47;;;;;;;;;;5009155;28;20046;-82
2024/01/16 10:21:22;;;;;;;10.07;5.75;;;;;;;;;;5009181;28;20049;-81
2024/01/16 10:23:50;;;;;;;9.35;5.55;;;;;;;;;;5024749;28;20050;-82
2024/01/16 10:26:17;;;;;;;8.10;5.55;;;;;;;;;;5028309;28;20733;-81
2024/01/16 10:28:43;;;;;;;9.93;4.90;;;;;;;;;;5029010;28;20046;-80
2024/01/16 10:31:16;;;;;;;6.80;4.93;;;;;;;;;;5011021;28;20061;-81
2024/01/16 10:33:42;;;;;;;7.00;3.85;;;;;;;;;;5029177;28;20045;-81
2024/01/16 10:36:16;;;;;;;5.85;3.45;;;;;;;;;;5011459;28;20115;-81
2024/01/16 10:38:44;;;;;;;7.30;3.50;;;;;;;;;;5028609;28;20051;-81
2024/01/16 10:41:11;;;;;;;5.45;3.42;;;;;;;;;;5028717;28;20053;-81
2024/01/16 10:43:37;;;;;;;5.55;3.28;;;;;;;;;;5028072;28;20117;-81
2024/01/16 10:46:11;;;;;;;4.50;2.75;;;;;;;;;;5029440;28;20156;-81
2024/01/16 10:48:37;;;;;;;6.22;2.80;;;;;;;;;;5028600;28;20053;-81
2024/01/16 10:51:03;;;;;;;10.40;3.22;;;;;;;;;;5028768;28;20042;-81
2024/01/16 10:53:33;;;;;;;9.95;2.95;;;;;;;;;;5029091;28;20110;-81
2024/01/16 10:56:00;;;;;;;5.07;2.38;;;;;;;;;;5011015;28;20052;-81
2024/01/16 10:58:26;;;;;;;4.78;2.45;;;;;;;;;;5027252;28;20081;-82
2024/01/16 11:00:57;;;;;;;4.78;2.33;;;;;;;;;;5027233;28;20088;-82
2024/01/16 11:03:30;;;;;;;7.57;2.50;;;;;;;;;;5027919;28;20053;-81
2024/01/16 11:05:57;;;;;;;3.70;2.22;;;;;;;;;;5028103;28;20091;-81
2024/01/16 11:08:29;;;;;;;6.07;3.05;;;;;;;;;;5008556;28;20046;-81
2024/01/16 11:10:55;;;;;;;4.82;2.00;;;;;;;;;;5028126;28;20132;-81
2024/01/16 11:13:22;;;;;;;5.28;2.03;;;;;;;;;;5026493;28;20083;-81
2024/01/16 11:15:48;;;;;;;5.10;2.00;;;;;;;;;;5027417;28;20049;-80
2024/01/16 11:18:15;;;;;;;4.57;1.83;;;;;;;;;;5025955;28;20099;-80
2024/01/16 11:20:42;;;;;;;6.07;2.00;;;;;;;;;;5020279;28;20410;-80
2024/01/16 11:23:09;;;;;;;5.22;1.63;;;;;;;;;;5025855;28;20049;-81
2024/01/16 11:25:35;;;;;;;3.95;1.63;;;;;;;;;;5028503;28;20053;-81
2024/01/16 11:28:11;;;;;;;6.20;1.63;;;;;;;;;;5035058;28;20056;-81
2024/01/16 11:30:37;;;;;;;4.00;1.48;;;;;;;;;;5013140;28;20133;-80
2024/01/16 11:33:07;;;;;;;7.53;1.70;;;;;;;;;;4990633;28;20216;-80
2024/01/16 11:35:33;;;;;;;5.95;1.83;;;;;;;;;;5026948;28;20073;-80
2024/01/16 11:38:10;;;;;;;4.28;1.63;;;;;;;;;;5026245;28;20164;-80
2024/01/16 11:40:36;;;;;;;3.22;1.90;;;;;;;;;;5027028;28;20125;-81
2024/01/16 11:43:21;;;;;;;3.92;1.52;;;;;;;;;;5028421;28;20053;-81
2024/01/16 11:45:50;;;;;;;5.60;1.70;;;;;;;;;;4992793;28;20164;-81
2024/01/16 11:48:17;;;;;;;4.70;1.83;;;;;;;;;;5027771;28;20419;-80
2024/01/16 11:50:44;;;;;;;3.72;1.95;;;;;;;;;;5027971;28;20103;-81
2024/01/16 11:53:10;;;;;;;3.45;1.58;;;;;;;;;;5026543;28;20049;-82
2024/01/16 11:55:38;;;;;;;5.28;2.28;;;;;;;;;;5024515;28;20041;-82
2024/01/16 11:58:05;;;;;;;4.18;2.45;;;;;;;;;;5027465;28;20053;-79
2024/01/16 12:00:33;;;;;;;8.30;2.40;;;;;;;;;;5027815;28;20053;-80
2024/01/16 12:03:01;;;;;;;9.13;3.97;;;;;;;;;;5027183;28;20136;-78
2024/01/16 12:05:27;;;;;;;4.85;2.90;;;;;;;;;;5027712;28;20099;-79
2024/01/16 12:07:54;;;;;;;5.60;3.45;;;;;;;;;;5027868;28;20045;-78
2024/01/16 12:10:21;;;;;;;5.20;3.40;;;;;;;;;;5026961;28;20559;-79
2024/01/16 12:12:48;;;;;;;6.43;3.13;;;;;;;;;;5009447;28;20144;-79
2024/01/16 12:15:19;;;;;;;7.85;3.63;;;;;;;;;;5031274;28;20152;-79
2024/01/16 12:17:58;;;;;;;7.63;4.28;;;;;;;;;;5030318;28;20045;-79
2024/01/16 12:20:25;;;;;;;11.80;7.20;;;;;;;;;;4997276;28;20052;-79
2024/01/16 12:22:55;;;;;;;53.58;26.50;;;;;;;;;;5029317;28;20046;-79
2024/01/16 12:25:24;;;;;;;87.95;44.88;;;;;;;;;;5029719;28;20081;-78
2024/01/16 12:28:00;;;;;;;23.52;12.23;;;;;;;;;;5031340;28;20475;-78
2024/01/16 12:30:35;;;;;;;14.35;8.13;;;;;;;;;;5031521;28;20053;-78
2024/01/16 12:33:08;;;;;;;26.95;17.63;;;;;;;;;;5029847;28;20422;-78
2024/01/16 12:35:38;;;;;;;13.63;8.05;;;;;;;;;;5030980;28;20733;-78
2024/01/16 12:38:05;;;;;;;13.75;8.18;;;;;;;;;;5029161;28;20049;-79
2024/01/16 12:40:32;;;;;;;10.18;6.85;;;;;;;;;;5030604;28;20132;-79
2024/01/16 12:42:58;;;;;;;13.95;6.63;;;;;;;;;;5031253;28;20068;-79
2024/01/16 12:45:24;;;;;;;15.25;8.10;;;;;;;;;;5012952;28;20048;-79
2024/01/16 12:47:52;;;;;;;14.48;6.97;;;;;;;;;;5031029;28;20520;-80
2024/01/16 12:50:22;;;;;;;15.50;6.80;;;;;;;;;;5031547;28;20103;-80
2024/01/16 12:52:51;;;;;;;10.38;6.38;;;;;;;;;;4997231;28;20060;-80
2024/01/16 12:55:17;;;;;;;10.25;5.95;;;;;;;;;;5011691;28;20053;-79
2024/01/16 12:57:45;;;;;;;8.80;6.15;;;;;;;;;;5012381;28;20057;-80
2024/01/16 13:00:22;;;;;;;10.02;6.15;;;;;;;;;;5029556;28;20125;-79
2024/01/16 13:02:52;;;;;;;8.73;5.20;;;;;;;;;;5010549;28;20065;-79
2024/01/16 13:05:18;;;;;;;8.77;5.72;;;;;;;;;;5011732;28;20114;-79
2024/01/16 13:07:46;;;;;;;10.35;5.78;;;;;;;;;;5027662;28;20045;-80
2024/01/16 13:10:15;;;;;;;7.85;5.55;;;;;;;;;;5029060;28;20049;-80
2024/01/16 13:12:42;;;;;;;10.23;5.07;;;;;;;;;;5029112;28;20079;-79
2024/01/16 13:15:10;;;;;;;13.80;5.45;;;;;;;;;;5028687;28;20495;-79
2024/01/16 13:17:36;;;;;;;8.02;4.70;;;;;;;;;;5012424;28;20372;-79
2024/01/16 13:20:09;;;;;;;11.27;4.75;;;;;;;;;;5012966;28;20851;-79
2024/01/16 13:22:35;;;;;;;10.15;5.35;;;;;;;;;;5029797;28;20076;-79
2024/01/16 13:25:02;;;;;;;8.13;4.93;;;;;;;;;;5011485;28;20590;-79
2024/01/16 13:27:29;;;;;;;7.05;4.38;;;;;;;;;;5030161;28;20079;-79
2024/01/16 13:29:56;;;;;;;6.63;4.50;;;;;;;;;;5011796;28;20045;-79
2024/01/16 13:32:22;;;;;;;9.57;4.20;;;;;;;;;;5029992;28;20042;-80
2024/01/16 13:34:49;;;;;;;7.88;4.40;;;;;;;;;;5029157;28;20080;-80
2024/01/16 13:37:21;;;;;;;9.35;4.70;;;;;;;;;;5029415;28;20049;-80
2024/01/16 13:39:47;;;;;;;7.40;4.20;;;;;;;;;;5012418;28;20652;-79
2024/01/16 13:42:13;;;;;;;7.45;4.70;;;;;;;;;;5029825;28;20042;-79
2024/01/16 13:44:39;;;;;;;9.13;4.00;;;;;;;;;;5023578;28;20514;-80
2024/01/16 13:47:05;;;;;;;8.25;4.00;;;;;;;;;;5029633;28;20106;-79
2024/01/16 13:49:33;;;;;;;6.13;3.88;;;;;;;;;;5012221;28;20049;-79
2024/01/16 13:51:59;;;;;;;6.72;3.95;;;;;;;;;;5029793;28;20046;-78
2024/01/16 13:54:26;;;;;;;8.43;3.47;;;;;;;;;;5028513;28;21893;-78
2024/01/16 13:56:52;;;;;;;6.50;3.80;;;;;;;;;;5029426;28;20061;-78
2024/01/16 13:59:18;;;;;;;7.03;3.25;;;;;;;;;;5028612;28;20045;-79
2024/01/16 14:01:44;;;;;;;8.57;3.72;;;;;;;;;;5009572;28;20400;-79
2024/01/16 14:04:10;;;;;;;10.70;3.63;;;;;;;;;;5028789;28;20062;-79
2024/01/16 14:06:36;;;;;;;7.68;3.35;;;;;;;;;;5026404;28;20512;-79
2024/01/16 14:09:03;;;;;;;8.40;3.78;;;;;;;;;;4994310;28;20131;-79
2024/01/16 14:11:29;;;;;;;7.80;3.80;;;;;;;;;;5029514;28;20060;-78
2024/01/16 14:13:54;;;;;;;5.03;3.33;;;;;;;;;;4995528;28;20415;-79
2024/01/16 14:16:21;;;;;;;9.00;4.13;;;;;;;;;;5028579;28;20053;-79
2024/01/16 14:18:47;;;;;;;7.32;2.80;;;;;;;;;;5011583;28;20372;-79
2024/01/16 14:21:13;;;;;;;6.30;2.78;;;;;;;;;;5029311;28;20519;-80
2024/01/16 14:23:39;;;;;;;4.18;3.10;;;;;;;;;;5027082;28;20057;-80
2024/01/16 14:26:05;;;;;;;8.32;3.60;;;;;;;;;;5009651;28;20057;-79
2024/01/16 14:28:33;;;;;;;4.85;2.85;;;;;;;;;;5009530;28;20048;-78
2024/01/16 14:31:00;;;;;;;6.95;3.20;;;;;;;;;;4992544;28;20050;-79
2024/01/16 14:33:26;;;;;;;4.93;2.47;;;;;;;;;;5029213;28;20791;-79
2024/01/16 14:35:52;;;;;;;7.65;3.10;;;;;;;;;;5028186;28;20045;-79
2024/01/16 14:38:18;;;;;;;9.73;3.40;;;;;;;;;;5026690;28;20049;-80